Los Nietos, California
Current Conditions -  °F | °C
As of 10:53 AM on Thursday 27 Nov 2014 (Local Time) from KFUL Reporting Station
Clear Clear  
Wind Chill: 85°   Ceiling: Unl
Heat Index: 85°   Visibility: 10mi
Dew Point: 29°   Wind: 0mph
Humidity: 13%   Direction: NA
Pressure: 30.07"   Gusts: NA
Location:  33.9685°N, 118.069°W
Report Text: KFUL 271853Z 00000KT 10SM CLR 29/M02 A3007 RMK AO2 SLP180 T02941017
Loading
Personal Weather Stations






























Interactive Weather Map New forecast layout! Learn more

10-Day Weather Forecast

Advertisements
Track Severe Weather on mobile